Flugplatz Weimar-Umpferstedt

Für EDOU sind keine METAR/TAF Berichte vorhanden.
Es werden die Flugwettermeldungen vom Flugplatz Erfurt in 30 km Entfernung angezeigt.

Bericht für EDDE

vom 25.09. um 19:20 UTC

Wind 7 kt aus 190°

Sichtweite 10 km oder mehr

gering bewölkt in 4000 ft

Temperatur 10.0°C

Taupunkt 6.0°C

Luftfeuchtigkeit 76%

Luftdruck 999 hPa

keine wesentliche Wetteränderung innerhalb den nächsten 2 Stunden zu erwarten

EDDE 251920Z 19007KT 9999 FEW040 10/06 Q0999 NOSIG

Prognose für EDDE

vom 25.09. um 17:00 UTC

Zwischen 18:00 UTC und 09:00 UTC

Wind 7 kt aus 230°

Sichtweite 10 km oder mehr

aufgelockert bewölkt in 3000 ft


Am 26.09. zwischen 09:00 und 12:00 UTC übergehend zu

Wind 7 kt aus 290°

Sichtweite 10 km oder mehr

aufgelockert bewölkt in 3000 ft


Am 26.09. zwischen 12:00 UTC und 18:00 UTC zeitweise

Regen

aufgebrochene Bewölkung in 1400 ft

TAF EDDE 251700Z 2518/2618 23007KT 9999 SCT030 BECMG 2609/2612 29007KT TEMPO 2612/2618 RA BKN014
Impressum